Time;durP1;ratioP1;P1;durP2;ratioP2;P2;SDS_P1;SDS_P2;PMS_P1;PMS_P2;Temp;Humidity;BMP_temperature;BMP_pressure;BME280_temperature;BME280_humidity;BME280_pressure;Samples;Min_cycle;Max_cycle;Signal;HPM_P1;HPM_P2
2022/01/19 00:00:51;;;;;;;4.58;2.30;;;;;;;7.20;45.63;100275.67;1684184;83;21427;-56
2022/01/19 00:03:18;;;;;;;3.08;1.52;;;;;;;7.02;44.45;100277.31;1682225;83;21507;-56
2022/01/19 00:05:44;;;;;;;2.52;1.52;;;;;;;7.14;45.53;100277.53;1678132;82;21521;-56
2022/01/19 00:08:16;;;;;;;3.08;1.67;;;;;;;7.17;45.70;100284.87;1694799;82;21455;-56
2022/01/19 00:10:40;;;;;;;2.90;1.55;;;;;;;7.13;45.55;100287.59;1684204;84;21499;-56
2022/01/19 00:13:06;;;;;;;2.98;1.60;;;;;;;7.11;45.47;100308.98;1684325;83;21470;-56
2022/01/19 00:15:33;;;;;;;3.20;1.47;;;;;;;7.02;45.39;100307.39;1690400;83;21516;-56
2022/01/19 00:18:00;;;;;;;3.17;2.05;;;;;;;7.04;45.40;100319.98;1693189;83;20959;-56
2022/01/19 00:20:30;;;;;;;3.20;2.10;;;;;;;7.03;45.31;100323.51;1694302;82;21058;-56
2022/01/19 00:22:58;;;;;;;3.50;1.80;;;;;;;7.04;45.82;100323.05;1677226;82;21598;-56
2022/01/19 00:25:24;;;;;;;4.03;1.77;;;;;;;7.10;45.21;100326.86;1679668;83;22130;-56
2022/01/19 00:27:51;;;;;;;2.42;1.52;;;;;;;7.05;45.38;100335.25;1678460;82;21448;-56
2022/01/19 00:30:18;;;;;;;4.83;1.70;;;;;;;6.97;45.17;100334.94;1697081;82;21503;-56
2022/01/19 00:32:45;;;;;;;1.75;1.52;;;;;;;6.82;44.70;100328.20;1663034;84;21592;-56
2022/01/19 00:35:12;;;;;;;3.58;2.17;;;;;;;6.80;45.18;100324.77;1692016;82;21475;-56
2022/01/19 00:37:40;;;;;;;6.28;1.67;;;;;;;6.79;44.96;100324.78;1677926;82;21798;-55
2022/01/19 00:40:08;;;;;;;3.70;1.57;;;;;;;6.83;45.33;100319.91;1689915;84;20967;-56
2022/01/19 00:42:35;;;;;;;3.42;1.80;;;;;;;6.81;44.96;100319.08;1690669;84;21460;-56
2022/01/19 00:45:05;;;;;;;3.00;1.53;;;;;;;6.80;45.35;100318.23;1688017;82;21628;-56
2022/01/19 00:47:32;;;;;;;2.55;1.50;;;;;;;6.84;45.37;100321.66;1686509;81;21542;-56
2022/01/19 00:49:59;;;;;;;2.87;1.42;;;;;;;6.86;45.62;100328.17;1690363;82;22121;-56
2022/01/19 00:52:26;;;;;;;4.30;1.82;;;;;;;6.91;45.48;100325.02;1681234;84;21622;-56
2022/01/19 00:54:53;;;;;;;3.58;1.92;;;;;;;6.90;45.41;100330.69;1690358;82;21428;-56
2022/01/19 00:57:20;;;;;;;3.08;1.95;;;;;;;6.79;44.61;100337.84;1685552;82;22212;-56
2022/01/19 00:59:47;;;;;;;2.92;1.77;;;;;;;6.83;45.46;100332.53;1696598;84;21542;-55
2022/01/19 01:02:13;;;;;;;3.62;2.40;;;;;;;6.80;45.03;100344.36;1687174;81;22200;-56
2022/01/19 01:04:41;;;;;;;;;;;;;;;6.80;45.03;100344.36;1691974;82;21050;-56
2022/01/19 01:07:07;;;;;;;2.70;1.35;;;;;;;6.76;45.31;100350.53;1693182;84;20426;-56
2022/01/19 01:09:34;;;;;;;5.13;2.00;;;;;;;6.73;45.55;100345.80;1691131;83;21559;-56
2022/01/19 01:12:09;;;;;;;2.75;1.87;;;;;;;6.67;45.65;100349.37;1681084;82;21645;-56
2022/01/19 01:20:04;;;;;;;2.08;1.80;;;;;;;6.56;45.21;100348.22;1687193;83;21553;-55
2022/01/19 01:22:31;;;;;;;5.50;2.30;;;;;;;6.57;45.55;100349.07;1683896;82;21704;-55
2022/01/19 01:24:58;;;;;;;3.22;1.82;;;;;;;6.49;45.52;100355.72;1676158;82;21515;-55
2022/01/19 01:27:25;;;;;;;3.43;2.27;;;;;;;6.49;45.20;100358.33;1694836;82;21809;-56
2022/01/19 01:29:51;;;;;;;2.70;1.97;;;;;;;6.45;45.63;100355.80;1692473;82;21440;-56
2022/01/19 01:32:18;;;;;;;3.52;1.82;;;;;;;6.42;45.55;100350.16;1683737;84;21501;-57
2022/01/19 01:34:45;;;;;;;3.62;2.10;;;;;;;6.34;45.45;100348.11;1689291;83;21522;-56
2022/01/19 01:37:12;;;;;;;2.47;1.72;;;;;;;6.30;44.96;100356.43;1686355;83;27075;-56
2022/01/19 01:39:39;;;;;;;5.10;2.12;;;;;;;6.24;45.31;100352.16;1686197;83;21834;-56
2022/01/19 01:42:15;;;;;;;3.33;2.00;;;;;;;6.23;45.24;100343.91;1690312;82;21614;-56
2022/01/19 01:44:45;;;;;;;5.20;1.77;;;;;;;6.32;45.56;100344.66;1683666;84;21507;-55
2022/01/19 01:47:13;;;;;;;2.15;1.57;;;;;;;6.22;45.53;100347.84;1689585;82;21002;-57
2022/01/19 01:53:26;;;;;;;4.10;1.87;;;;;;;6.22;45.33;100345.23;1692072;82;21547;-56
2022/01/19 01:55:12;;;;;;;2.02;1.42;;;;;;;6.27;45.52;100347.31;1690796;82;21578;-55
2022/01/19 01:57:39;;;;;;;3.92;1.87;;;;;;;6.30;45.75;100350.34;1684391;82;21586;-56
2022/01/19 02:00:10;;;;;;;3.92;2.05;;;;;;;6.34;45.87;100363.78;1692556;82;21551;-56
2022/01/19 02:02:47;;;;;;;2.35;1.60;;;;;;;6.28;45.51;100362.12;1686029;82;21606;-57
2022/01/19 02:05:17;;;;;;;2.80;2.02;;;;;;;6.26;45.47;100352.14;1681746;82;21888;-56
2022/01/19 02:08:02;;;;;;;4.78;1.70;;;;;;;6.28;45.91;100350.81;1696078;84;21064;-56
2022/01/19 02:10:34;;;;;;;4.22;2.05;;;;;;;6.22;45.74;100347.84;1686269;82;21511;-56
2022/01/19 02:15:54;;;;;;;2.95;1.95;;;;;;;6.21;45.78;100340.43;1723678;80;21409;-56
2022/01/19 02:23:54;;;;;;;3.33;1.87;;;;;;;6.21;45.75;100339.58;1685103;83;21514;-55
2022/01/19 02:26:31;;;;;;;3.42;2.20;;;;;;;6.17;45.79;100342.67;1722999;80;21547;-56
2022/01/19 02:29:11;;;;;;;4.20;2.30;;;;;;;6.11;45.57;100341.45;1724673;82;21002;-56
2022/01/19 02:42:25;;;;;;;2.72;1.85;;;;;;;5.99;45.82;100346.41;1704420;81;21551;-56
2022/01/19 02:49:14;;;;;;;3.30;1.95;;;;;;;5.93;45.87;100346.88;1718619;80;21585;-55
2022/01/19 02:49:53;;;;;;;3.70;2.12;;;;;;;5.89;45.34;100349.11;1684364;82;21584;-56
2022/01/19 02:52:20;;;;;;;5.28;2.47;;;;;;;5.90;45.30;100339.96;1717388;81;21601;-57
2022/01/19 02:54:48;;;;;;;3.40;2.05;;;;;;;5.87;45.84;100329.55;1680222;84;21506;-55
2022/01/19 02:57:15;;;;;;;3.90;2.25;;;;;;;5.94;45.55;100356.45;1687844;84;21814;-55
2022/01/19 03:06:16;;;;;;;3.47;1.62;;;;;;;5.93;45.87;100351.64;1729974;80;21558;-56
2022/01/19 03:10:31;;;;;;;5.95;2.45;;;;;;;5.96;45.77;100345.13;1717680;81;22127;-56
2022/01/19 03:12:58;;;;;;;3.50;2.08;;;;;;;5.95;45.87;100352.55;1717506;81;21554;-56
2022/01/19 03:15:26;;;;;;;3.75;1.85;;;;;;;5.93;45.79;100351.64;1722711;81;21467;-56
2022/01/19 03:17:58;;;;;;;3.30;2.17;;;;;;;5.91;45.75;100348.64;1709372;80;21503;-57
2022/01/19 03:20:24;;;;;;;4.45;2.10;;;;;;;5.87;45.62;100349.12;1719144;81;21515;-57
2022/01/19 03:23:03;;;;;;;4.15;1.95;;;;;;;5.80;45.18;100346.16;1727716;82;21758;-56
2022/01/19 03:25:36;;;;;;;2.83;2.00;;;;;;;5.85;45.77;100343.06;1716527;82;21002;-56
2022/01/19 03:27:59;;;;;;;4.58;2.30;;;;;;;5.87;45.72;100328.23;1721086;81;21502;-56
2022/01/19 03:30:26;;;;;;;4.60;2.73;;;;;;;5.88;45.69;100325.18;1712234;81;21499;-56
2022/01/19 03:32:53;;;;;;;;;;;;;;;5.89;45.77;100316.48;1725518;82;21435;-56
2022/01/19 03:35:19;;;;;;;2.17;1.80;;;;;;;5.83;45.61;100316.12;1717702;81;21978;-56
2022/01/19 03:37:46;;;;;;;3.75;2.08;;;;;;;5.76;45.55;100319.23;1719214;81;21641;-56
2022/01/19 03:40:14;;;;;;;6.22;2.98;;;;;;;5.74;45.61;100315.78;1689486;84;27148;-57
2022/01/19 03:42:40;;;;;;;2.37;2.02;;;;;;;5.68;45.58;100313.25;1720452;80;21006;-56
2022/01/19 03:45:09;;;;;;;3.77;2.30;;;;;;;5.61;45.48;100320.30;1717597;81;21533;-56
2022/01/19 03:47:41;;;;;;;4.47;2.27;;;;;;;5.62;45.46;100322.47;1717821;81;21384;-56
2022/01/19 03:50:07;;;;;;;4.97;2.27;;;;;;;5.62;45.60;100325.08;1725905;80;21460;-56
2022/01/19 03:52:35;;;;;;;3.40;2.52;;;;;;;5.59;45.57;100327.70;1680806;83;21632;-56
2022/01/19 03:55:01;;;;;;;2.92;2.00;;;;;;;5.59;45.84;100325.95;1693407;84;21569;-57
2022/01/19 03:57:28;;;;;;;4.53;2.58;;;;;;;5.52;45.29;100332.56;1679519;82;21478;-56
2022/01/19 03:59:55;;;;;;;3.77;2.55;;;;;;;5.45;45.31;100339.16;1689753;84;22095;-56
2022/01/19 04:02:22;;;;;;;6.08;2.20;;;;;;;5.46;45.78;100339.60;1685862;82;21597;-56
2022/01/19 04:04:58;;;;;;;5.47;3.00;;;;;;;5.46;45.63;100341.32;1727295;81;21034;-56
2022/01/19 04:07:23;;;;;;;4.80;2.58;;;;;;;5.45;45.91;100344.83;1706735;82;21561;-56
2022/01/19 04:09:50;;;;;;;6.03;2.60;;;;;;;5.47;45.72;100340.45;1684875;84;21560;-56
2022/01/19 04:12:25;;;;;;;5.28;3.10;;;;;;;5.45;45.61;100346.13;1683180;83;21636;-55
2022/01/19 04:14:46;;;;;;;4.00;2.10;;;;;;;5.47;45.34;100357.41;1667376;83;21529;-55
2022/01/19 04:17:14;;;;;;;;;;;;;;;5.53;45.56;100357.78;1683593;82;20964;-56
2022/01/19 04:19:45;;;;;;;3.95;2.62;;;;;;;5.53;45.52;100356.03;1697373;82;20430;-55
2022/01/19 04:22:22;;;;;;;5.03;2.45;;;;;;;5.54;45.55;100345.15;1683534;82;21594;-55
2022/01/19 04:24:50;;;;;;;4.42;3.20;;;;;;;5.60;46.10;100351.17;1680824;83;22441;-55
2022/01/19 04:29:57;;;;;;;4.67;2.67;;;;;;;5.74;46.32;100357.53;1700830;82;21609;-56
2022/01/19 04:32:27;;;;;;;5.42;2.92;;;;;;;5.88;46.30;100361.72;1688296;82;21613;-56
2022/01/19 04:34:50;;;;;;;4.70;2.87;;;;;;;5.92;46.30;100363.44;1684661;83;21010;-56
2022/01/19 05:07:04;;;;;;;10.72;4.28;;;;;;;5.68;45.83;100386.76;1680556;83;21517;-56
2022/01/19 05:14:50;;;;;;;7.87;3.58;;;;;;;5.58;45.79;100376.87;1688915;82;21578;-56
2022/01/19 05:17:17;;;;;;;8.53;3.90;;;;;;;5.54;45.50;100367.32;1683165;83;22117;-55
2022/01/19 05:19:44;;;;;;;6.65;4.58;;;;;;;5.56;45.87;100377.33;1689246;82;21667;-55
2022/01/19 05:22:11;;;;;;;5.85;3.35;;;;;;;5.60;46.17;100377.27;1654381;84;21519;-55
2022/01/19 05:24:51;;;;;;;7.17;3.90;;;;;;;5.58;45.57;100370.34;1681728;82;21602;-55
2022/01/19 05:27:26;;;;;;;6.30;2.70;;;;;;;5.55;45.98;100372.97;1681463;83;21094;-56
2022/01/19 05:29:52;;;;;;;7.78;3.30;;;;;;;5.58;46.13;100374.26;1693860;82;21809;-55
2022/01/19 05:32:19;;;;;;;7.30;3.65;;;;;;;5.50;45.47;100376.95;1678610;82;21549;-56
2022/01/19 05:34:47;;;;;;;7.83;3.60;;;;;;;5.53;45.92;100372.13;1684714;82;21622;-55
2022/01/19 05:37:27;;;;;;;4.22;2.80;;;;;;;5.53;45.94;100378.65;1607292;84;21593;-56
2022/01/19 05:39:56;;;;;;;7.58;4.55;;;;;;;5.44;45.64;100375.27;1688758;83;21140;-56
2022/01/19 05:42:25;;;;;;;5.10;2.72;;;;;;;5.46;45.92;100386.97;1683056;82;21675;-56
2022/01/19 05:44:51;;;;;;;6.17;3.10;;;;;;;5.46;46.01;100383.94;1692890;83;21444;-56
2022/01/19 05:47:19;;;;;;;4.67;3.10;;;;;;;5.52;45.93;100382.13;1689698;82;22036;-56
2022/01/19 05:49:46;;;;;;;5.08;3.20;;;;;;;5.53;46.17;100378.20;1690848;82;21081;-55
2022/01/19 05:52:15;;;;;;;5.75;3.27;;;;;;;5.56;46.13;100378.19;1689699;83;21488;-55
2022/01/19 05:54:41;;;;;;;6.33;3.27;;;;;;;5.54;45.93;100380.36;1676692;82;21693;-55
2022/01/19 05:57:10;;;;;;;;;;;;;;;5.55;46.08;100379.50;1686817;82;21444;-56
2022/01/19 05:59:38;;;;;;;6.78;2.83;;;;;;;5.56;46.19;100376.02;1685385;82;20425;-56
2022/01/19 06:02:05;;;;;;;8.18;3.20;;;;;;;5.63;46.23;100386.79;1687342;82;21443;-56
2022/01/19 06:04:32;;;;;;;6.62;3.25;;;;;;;5.64;46.20;100385.48;1685241;84;21606;-55
2022/01/19 06:07:11;;;;;;;5.90;3.67;;;;;;;5.70;46.25;100381.08;1692219;82;22138;-55
2022/01/19 06:12:12;;;;;;;7.65;4.37;;;;;;;5.78;46.37;100387.06;1677357;82;21594;-56
2022/01/19 06:14:41;;;;;;;8.23;4.95;;;;;;;5.87;46.42;100388.72;1683268;83;21455;-55
2022/01/19 06:17:09;;;;;;;10.55;5.55;;;;;;;5.93;46.44;100392.55;1690547;82;21106;-55
2022/01/19 06:19:36;;;;;;;9.58;4.45;;;;;;;6.00;46.33;100390.33;1695699;82;21802;-56
2022/01/19 06:22:05;;;;;;;8.95;4.97;;;;;;;6.07;46.58;100388.52;1688094;82;21427;-56
2022/01/19 06:24:31;;;;;;;9.03;5.08;;;;;;;6.04;46.44;100380.27;1674774;82;21586;-56
2022/01/19 06:27:00;;;;;;;9.53;5.20;;;;;;;6.12;46.68;100383.67;1683568;82;21653;-55
2022/01/19 06:29:27;;;;;;;10.53;5.17;;;;;;;6.23;46.86;100383.50;1697984;82;21674;-57
2022/01/19 06:31:54;;;;;;;11.73;5.78;;;;;;;6.35;47.07;100391.19;1691145;83;22246;-56
2022/01/19 06:34:21;;;;;;;13.23;6.20;;;;;;;6.51;47.12;100394.44;1724457;81;21520;-57
2022/01/19 06:36:53;;;;;;;13.85;7.05;;;;;;;6.64;47.30;100401.67;1700470;80;20942;-57
2022/01/19 06:39:30;;;;;;;14.80;7.67;;;;;;;6.75;47.47;100412.83;1726163;81;21630;-56
2022/01/19 06:42:05;;;;;;;17.70;7.45;;;;;;;6.77;47.74;100411.05;1710566;80;21851;-57
2022/01/19 06:44:32;;;;;;;9.45;5.42;;;;;;;6.95;48.08;100402.50;1719757;80;21789;-56
2022/01/19 06:46:59;;;;;;;7.67;4.33;;;;;;;7.05;47.53;100409.33;1695146;84;21550;-57
2022/01/19 06:49:25;;;;;;;8.60;4.45;;;;;;;7.05;46.95;100421.55;1672742;84;21542;-56
2022/01/19 06:51:52;;;;;;;8.30;4.35;;;;;;;7.21;48.01;100413.84;1724287;80;21519;-56
2022/01/19 06:54:19;;;;;;;9.00;3.70;;;;;;;7.33;48.17;100410.18;1729581;80;21499;-56
2022/01/19 06:56:47;;;;;;;7.00;3.85;;;;;;;7.37;48.06;100402.23;1728432;80;22066;-56
2022/01/19 06:59:24;;;;;;;5.92;3.67;;;;;;;7.39;47.35;100400.45;1724898;80;25689;-56
2022/01/19 07:02:09;;;;;;;5.70;3.47;;;;;;;7.48;47.81;100404.67;1732411;81;21523;-56
2022/01/19 07:04:49;;;;;;;6.22;3.52;;;;;;;7.53;48.14;100405.88;1686152;83;21567;-56
2022/01/19 07:07:12;;;;;;;7.45;3.90;;;;;;;7.61;48.13;100406.63;1721416;81;21587;-56
2022/01/19 07:09:47;;;;;;;7.90;3.98;;;;;;;7.66;48.06;100408.69;1720630;80;21885;-57
2022/01/19 07:12:14;;;;;;;12.63;5.37;;;;;;;7.69;48.30;100398.17;1733321;80;21506;-56
2022/01/19 07:14:42;;;;;;;8.53;4.95;;;;;;;7.75;47.94;100397.20;1742283;80;21522;-56
2022/01/19 07:17:09;;;;;;;8.57;5.10;;;;;;;7.77;48.28;100393.64;1681999;84;21599;-56
2022/01/19 07:19:36;;;;;;;9.40;5.03;;;;;;;7.91;48.76;100392.52;1720150;80;21927;-56
2022/01/19 07:22:03;;;;;;;6.73;3.67;;;;;;;8.01;48.62;100384.05;1719514;81;22072;-56
2022/01/19 07:24:30;;;;;;;9.45;5.20;;;;;;;8.07;48.08;100387.84;1722261;81;21601;-57
2022/01/19 07:26:59;;;;;;;8.28;4.85;;;;;;;8.13;48.20;100387.25;1716705;81;21546;-56
2022/01/19 07:29:28;;;;;;;7.55;4.12;;;;;;;8.13;48.66;100380.70;1723318;81;21527;-57
2022/01/19 07:31:57;;;;;;;11.85;5.45;;;;;;;8.23;49.15;100389.26;1712255;81;21423;-57
2022/01/19 07:34:25;;;;;;;8.63;4.90;;;;;;;8.30;48.52;100389.97;1709887;81;21984;-57
2022/01/19 07:36:55;;;;;;;7.33;4.58;;;;;;;8.37;49.02;100388.49;1719432;81;21428;-57
2022/01/19 07:39:23;;;;;;;11.35;5.12;;;;;;;8.35;48.17;100382.42;1689649;82;21502;-57
2022/01/19 07:41:53;;;;;;;7.67;3.85;;;;;;;8.30;48.42;100384.27;1647250;85;21521;-57
2022/01/19 07:44:30;;;;;;;5.42;3.90;;;;;;;8.25;48.60;100386.16;1686017;82;21641;-57
2022/01/19 07:47:16;;;;;;;6.45;3.95;;;;;;;8.31;48.81;100379.92;1708908;81;21807;-57
2022/01/19 07:50:05;;;;;;;6.85;4.00;;;;;;;8.38;48.37;100373.62;1639076;86;21527;-57
2022/01/19 07:52:45;;;;;;;6.37;4.15;;;;;;;8.26;47.19;100372.14;1597236;86;21554;-57
2022/01/19 07:55:23;;;;;;;7.80;3.95;;;;;;;8.28;48.10;100370.80;1676349;82;21415;-56
2022/01/19 07:58:09;;;;;;;4.70;3.70;;;;;;;8.29;47.60;100368.61;1718315;80;21499;-56
2022/01/19 08:00:40;;;;;;;5.47;3.80;;;;;;;8.21;46.58;100363.97;1724637;81;21535;-56
2022/01/19 08:03:17;;;;;;;9.08;3.37;;;;;;;8.37;48.26;100356.19;1719256;81;21585;-56
2022/01/19 08:05:54;;;;;;;6.15;3.37;;;;;;;8.42;48.12;100350.86;1720672;81;21505;-57
2022/01/19 08:08:22;;;;;;;6.75;3.08;;;;;;;8.39;47.83;100357.87;1732545;81;21475;-56
2022/01/19 08:10:49;;;;;;;4.27;2.20;;;;;;;8.36;47.73;100343.97;1719135;80;21542;-56
2022/01/19 08:13:17;;;;;;;6.03;3.20;;;;;;;8.24;49.03;100347.73;1714598;80;22006;-56
2022/01/19 08:15:45;;;;;;;4.28;2.30;;;;;;;8.21;47.74;100345.63;1716283;81;21535;-58
2022/01/19 08:18:12;;;;;;;4.45;2.45;;;;;;;8.35;49.25;100340.95;1719121;82;21657;-57
2022/01/19 08:20:42;;;;;;;4.15;2.50;;;;;;;8.45;49.72;100342.95;1680753;84;21619;-57
2022/01/19 08:23:07;;;;;;;9.18;3.30;;;;;;;8.54;49.36;100340.97;1697024;83;22006;-57
2022/01/19 08:25:37;;;;;;;7.95;3.22;;;;;;;8.58;49.01;100347.00;1719662;82;21818;-57
2022/01/19 08:28:05;;;;;;;7.62;3.47;;;;;;;8.58;49.26;100350.48;1720863;80;21062;-57
2022/01/19 08:30:33;;;;;;;6.83;2.80;;;;;;;8.51;47.78;100338.86;1723762;81;21494;-57
2022/01/19 08:33:00;;;;;;;5.72;3.47;;;;;;;8.52;49.13;100338.84;1729821;82;21518;-58
2022/01/19 08:35:32;;;;;;;6.25;4.60;;;;;;;8.47;48.62;100342.00;1713983;81;21562;-58
2022/01/19 08:38:17;;;;;;;11.12;4.15;;;;;;;8.64;49.20;100343.38;1725574;81;21602;-57
2022/01/19 08:40:46;;;;;;;7.05;4.15;;;;;;;8.84;49.09;100336.36;1727320;81;21668;-57
2022/01/19 08:43:15;;;;;;;7.10;3.87;;;;;;;9.05;49.19;100327.94;1683002;84;21522;-58
2022/01/19 08:45:43;;;;;;;6.40;4.13;;;;;;;9.35;49.35;100328.89;1722362;80;21535;-56
2022/01/19 08:48:11;;;;;;;5.20;3.65;;;;;;;9.58;49.36;100326.09;1724828;80;21597;-58
2022/01/19 08:50:48;;;;;;;7.03;3.55;;;;;;;9.94;49.60;100320.69;1727135;80;21808;-58
2022/01/19 08:53:22;;;;;;;7.40;3.60;;;;;;;10.19;48.85;100307.70;1704356;81;21534;-58
2022/01/19 08:55:51;;;;;;;6.80;3.58;;;;;;;10.52;50.10;100301.84;1678817;82;21550;-57
2022/01/19 08:58:18;;;;;;;7.60;4.10;;;;;;;10.49;48.49;100313.80;1687965;82;21608;-57
2022/01/19 09:00:46;;;;;;;6.47;3.95;;;;;;;10.47;48.93;100309.47;1689457;83;21547;-56
2022/01/19 09:03:14;;;;;;;8.60;4.05;;;;;;;10.35;48.87;100306.78;1689740;83;21790;-55
2022/01/19 09:05:41;;;;;;;6.00;3.62;;;;;;;10.28;47.13;100310.05;1718955;81;21567;-56
2022/01/19 09:08:08;;;;;;;8.43;4.05;;;;;;;10.46;48.66;100313.88;1680680;84;21487;-56
2022/01/19 09:10:37;;;;;;;5.70;4.00;;;;;;;10.69;49.58;100320.17;1723442;80;28657;-57
2022/01/19 09:13:04;;;;;;;6.40;4.10;;;;;;;10.95;49.78;100318.47;1723513;81;21050;-57
2022/01/19 09:15:31;;;;;;;5.90;3.87;;;;;;;11.20;49.44;100315.84;1730707;81;21804;-57
2022/01/19 09:17:57;;;;;;;5.13;4.33;;;;;;;11.42;49.62;100314.64;1727971;80;21530;-57
2022/01/19 09:20:24;;;;;;;6.90;4.05;;;;;;;11.72;47.95;100315.77;1726983;80;21017;-58
2022/01/19 09:22:51;;;;;;;5.83;3.97;;;;;;;11.84;47.94;100307.39;1732485;80;21568;-58
2022/01/19 09:25:18;;;;;;;7.47;4.22;;;;;;;12.00;48.56;100299.35;1727554;81;21573;-57
2022/01/19 09:27:45;;;;;;;8.30;3.98;;;;;;;12.04;48.63;100298.31;1717978;80;21917;-58
2022/01/19 09:30:16;;;;;;;5.25;3.52;;;;;;;12.01;48.76;100296.25;1688751;84;21542;-57
2022/01/19 09:32:45;;;;;;;9.83;4.60;;;;;;;11.93;48.47;100288.64;1724605;80;21526;-57
2022/01/19 09:35:22;;;;;;;7.72;4.22;;;;;;;11.90;48.96;100290.53;1680639;83;21060;-57
2022/01/19 09:37:40;;;;;;;5.70;3.65;;;;;;;11.80;49.08;100294.79;1686849;82;21552;-57
2022/01/19 09:40:08;;;;;;;11.12;3.90;;;;;;;11.79;49.68;100283.87;1724287;81;21819;-58
2022/01/19 09:42:35;;;;;;;7.78;3.58;;;;;;;11.90;49.20;100279.52;1716100;81;20991;-57
2022/01/19 09:45:03;;;;;;;6.08;3.40;;;;;;;12.04;48.90;100275.91;1688228;84;21557;-58
2022/01/19 09:47:29;;;;;;;5.42;3.35;;;;;;;12.23;49.49;100270.77;1683695;82;21542;-57
2022/01/19 09:49:56;;;;;;;6.05;3.20;;;;;;;12.24;50.32;100265.91;1687907;84;21494;-58
2022/01/19 09:52:22;;;;;;;4.42;2.92;;;;;;;12.25;50.38;100265.44;1683709;84;21775;-58
2022/01/19 09:54:49;;;;;;;6.35;3.22;;;;;;;12.24;50.36;100259.32;1727691;80;21519;-57
2022/01/19 09:57:15;;;;;;;5.12;3.40;;;;;;;12.17;50.16;100257.84;1726812;80;21496;-58
2022/01/19 09:59:42;;;;;;;6.95;3.47;;;;;;;12.15;50.61;100257.48;1727295;80;21054;-56
2022/01/19 10:02:10;;;;;;;6.42;3.20;;;;;;;12.15;49.69;100260.11;1715453;80;21541;-57
2022/01/19 10:04:44;;;;;;;6.20;3.50;;;;;;;12.15;50.61;100262.31;1681525;84;21818;-57
2022/01/19 10:07:21;;;;;;;7.53;3.35;;;;;;;12.08;49.20;100255.56;1679447;84;21543;-57
2022/01/19 10:10:02;;;;;;;6.78;3.40;;;;;;;11.97;50.02;100254.66;1680131;84;21534;-57
2022/01/19 10:18:19;;;;;;;8.28;4.72;;;;;;;11.89;49.59;100230.36;1679782;84;22529;-58
2022/01/19 10:20:50;;;;;;;9.20;4.70;;;;;;;12.02;51.67;100228.14;1727470;80;21053;-57
2022/01/19 10:23:36;;;;;;;7.72;3.95;;;;;;;12.06;51.35;100218.72;1684501;82;21514;-57
2022/01/19 10:26:11;;;;;;;8.40;3.77;;;;;;;11.97;49.95;100222.19;1722065;81;21448;-56
2022/01/19 10:29:05;;;;;;;5.80;3.17;;;;;;;11.88;50.90;100220.28;1687608;83;21572;-57
2022/01/19 10:34:20;;;;;;;5.10;2.87;;;;;;;9.40;59.07;100226.42;1783188;78;23074;-57
2022/01/19 10:37:02;;;;;;;7.25;3.27;;;;;;;11.66;50.31;100214.98;1744286;80;21515;-56
2022/01/19 10:39:25;;;;;;;5.67;2.85;;;;;;;11.92;50.77;100221.50;1694511;83;21608;-59
2022/01/19 10:42:07;;;;;;;5.92;3.33;;;;;;;11.57;48.11;100211.84;1666491;84;21584;-57
2022/01/19 10:44:39;;;;;;;3.58;2.80;;;;;;;11.45;49.17;100215.77;1698600;82;21514;-56
2022/01/19 10:47:06;;;;;;;5.03;3.02;;;;;;;11.49;50.14;100220.03;1701199;82;21538;-56
2022/01/19 10:49:54;;;;;;;5.55;2.92;;;;;;;11.49;50.90;100222.20;1691588;82;21500;-57
2022/01/19 10:52:42;;;;;;;5.67;3.87;;;;;;;11.45;49.95;100213.14;1697904;82;21690;-58
2022/01/19 10:55:29;;;;;;;5.53;3.08;;;;;;;11.44;50.53;100220.65;1693911;82;21416;-57
2022/01/19 10:57:57;;;;;;;8.03;3.42;;;;;;;11.56;49.31;100212.73;1694244;82;21582;-58
2022/01/19 11:00:31;;;;;;;6.75;3.42;;;;;;;11.42;50.30;100210.17;1694231;82;21459;-58
2022/01/19 11:03:23;;;;;;;5.15;3.52;;;;;;;11.52;50.80;100207.20;1699991;82;21135;-58
2022/01/19 11:05:53;;;;;;;7.47;3.87;;;;;;;11.59;51.66;100209.53;1699468;82;21846;-58
2022/01/19 11:08:21;;;;;;;5.90;3.72;;;;;;;11.59;50.78;100202.95;1695564;82;21442;-57
2022/01/19 11:10:52;;;;;;;5.95;3.52;;;;;;;11.35;48.89;100198.14;1695142;82;21562;-57
2022/01/19 11:13:30;;;;;;;4.97;3.37;;;;;;;11.40;50.43;100208.05;1699672;82;21463;-57
2022/01/19 11:15:59;;;;;;;7.87;4.05;;;;;;;11.60;51.26;100209.95;1694027;82;21546;-56
2022/01/19 11:18:29;;;;;;;6.33;3.65;;;;;;;11.56;50.95;100210.95;1693854;82;22138;-57
2022/01/19 11:20:55;;;;;;;7.00;3.98;;;;;;;11.70;51.41;100210.45;1693846;82;21472;-57
2022/01/19 11:24:03;;;;;;;6.47;3.80;;;;;;;11.87;52.13;100208.02;1691983;83;21442;-57
2022/01/19 11:26:31;;;;;;;8.53;4.72;;;;;;;11.96;51.79;100212.55;1702449;83;21671;-58
2022/01/19 11:29:14;;;;;;;9.07;4.57;;;;;;;11.92;52.23;100212.27;1697934;83;21651;-55
2022/01/19 11:31:42;;;;;;;7.45;4.53;;;;;;;12.07;52.25;100208.59;1699968;81;21750;-59
2022/01/19 11:34:09;;;;;;;7.20;4.42;;;;;;;12.06;51.72;100189.72;1691719;83;21387;-57
2022/01/19 11:36:42;;;;;;;7.30;3.98;;;;;;;12.12;52.62;100185.98;1733877;80;21499;-58
2022/01/19 11:39:17;;;;;;;5.37;3.62;;;;;;;12.14;51.91;100179.34;1717949;82;21544;-59
2022/01/19 11:41:54;;;;;;;9.70;3.95;;;;;;;12.05;52.72;100174.84;1712137;82;21545;-57
2022/01/19 11:44:38;;;;;;;6.08;3.58;;;;;;;11.84;51.57;100165.12;1718361;82;26892;-57
2022/01/19 11:47:24;;;;;;;7.78;4.00;;;;;;;11.98;49.68;100154.92;1708472;82;21540;-57
2022/01/19 11:50:00;;;;;;;6.87;3.50;;;;;;;13.07;52.78;100145.43;1716642;82;20990;-58
2022/01/19 11:52:40;;;;;;;5.62;3.27;;;;;;;13.75;51.26;100137.92;1722334;82;21585;-58
2022/01/19 11:55:17;;;;;;;7.87;4.08;;;;;;;14.48;48.78;100141.80;1708542;82;21735;-58
2022/01/19 11:57:45;;;;;;;6.62;4.05;;;;;;;15.12;51.72;100146.02;1716158;80;21803;-59
2022/01/19 12:00:31;;;;;;;8.50;4.37;;;;;;;15.30;47.16;100139.73;1708091;82;21049;-59
2022/01/19 12:02:58;;;;;;;8.75;4.15;;;;;;;15.43;49.39;100139.07;1713050;82;21539;-58
2022/01/19 12:05:28;;;;;;;7.85;4.15;;;;;;;15.36;47.23;100127.94;1717370;81;21517;-58
2022/01/19 12:08:01;;;;;;;9.10;5.03;;;;;;;15.84;49.52;100124.85;1721129;82;21605;-58
2022/01/19 12:10:44;;;;;;;8.00;4.47;;;;;;;15.75;48.79;100128.02;1716609;82;21800;-57
2022/01/19 12:16:15;;;;;;;12.37;4.40;;;;;;;15.03;48.08;100108.98;1717137;82;21074;-57
2022/01/19 12:18:51;;;;;;;6.80;3.45;;;;;;;14.48;47.77;100117.13;1718656;82;21558;-57
2022/01/19 12:21:35;;;;;;;9.70;3.50;;;;;;;13.94;45.59;100129.95;1711010;82;21487;-55
2022/01/19 12:24:32;;;;;;;6.25;3.98;;;;;;;13.70;47.44;100125.38;1713942;82;21543;-55
2022/01/19 12:27:08;;;;;;;8.75;4.55;;;;;;;13.17;49.22;100133.55;1709883;82;21549;-57
2022/01/19 12:29:39;;;;;;;8.63;4.37;;;;;;;12.42;48.69;100136.39;1714401;82;21612;-56
2022/01/19 12:32:11;;;;;;;7.78;4.10;;;;;;;12.15;51.06;100137.11;1714646;82;21514;-56
2022/01/19 12:34:51;;;;;;;6.87;3.83;;;;;;;12.09;51.55;100130.75;1702867;82;21557;-56
2022/01/19 12:37:38;;;;;;;9.90;5.55;;;;;;;11.90;51.66;100133.75;1712162;82;21856;-57
2022/01/19 12:40:21;;;;;;;9.60;4.45;;;;;;;11.72;50.83;100135.33;1722297;82;21509;-57
2022/01/19 12:42:55;;;;;;;5.22;4.25;;;;;;;11.50;51.02;100133.52;1713579;80;21553;-57
2022/01/19 12:45:28;;;;;;;8.93;3.77;;;;;;;11.34;52.01;100150.38;1716240;82;21530;-59
2022/01/19 12:47:56;;;;;;;5.85;3.50;;;;;;;11.47;52.97;100156.00;1712046;82;21531;-58
2022/01/19 12:50:32;;;;;;;10.98;4.60;;;;;;;11.53;52.52;100162.81;1711975;82;22020;-57
2022/01/19 12:53:03;;;;;;;7.10;4.28;;;;;;;11.51;51.78;100158.95;1707635;82;21537;-56
2022/01/19 12:55:36;;;;;;;8.33;4.42;;;;;;;11.30;49.90;100160.16;1711443;82;21491;-56
2022/01/19 12:58:14;;;;;;;8.45;4.72;;;;;;;11.23;52.12;100147.29;1709699;82;21536;-56
2022/01/19 13:00:42;;;;;;;8.68;4.58;;;;;;;11.24;52.59;100146.35;1712179;82;21543;-55
2022/01/19 13:03:21;;;;;;;8.40;4.47;;;;;;;11.16;51.69;100145.33;1723202;82;21617;-56
2022/01/19 13:05:55;;;;;;;6.35;4.28;;;;;;;11.21;53.27;100146.48;1708456;82;21501;-57
2022/01/19 13:08:32;;;;;;;8.35;4.78;;;;;;;10.94;49.75;100141.30;1716682;81;21839;-57
2022/01/19 13:11:09;;;;;;;8.90;4.10;;;;;;;11.10;52.66;100140.30;1709990;82;21508;-55
2022/01/19 13:13:50;;;;;;;7.87;4.45;;;;;;;11.11;52.85;100135.42;1713266;82;20982;-55
2022/01/19 13:16:28;;;;;;;9.95;5.12;;;;;;;11.11;52.37;100135.42;1711455;82;22036;-54
2022/01/19 13:19:01;;;;;;;8.50;5.35;;;;;;;11.09;52.57;100134.63;1712671;82;21485;-56